sensor_id;sensor_type;location;lat;lon;timestamp;temperature;humidity
13992;DHT22;7070;53.586;9.692;2023-11-21T00:01:07;10.20;89.80
13992;DHT22;7070;53.586;9.692;2023-11-21T00:03:34;10.20;89.80
13992;DHT22;7070;53.586;9.692;2023-11-21T00:06:01;10.20;89.60
13992;DHT22;7070;53.586;9.692;2023-11-21T00:08:28;10.10;89.70
13992;DHT22;7070;53.586;9.692;2023-11-21T00:10:55;10.10;89.80
13992;DHT22;7070;53.586;9.692;2023-11-21T00:13:22;10.40;90.00
13992;DHT22;7070;53.586;9.692;2023-11-21T00:15:49;10.10;89.70
13992;DHT22;7070;53.586;9.692;2023-11-21T00:18:17;10.10;89.70
13992;DHT22;7070;53.586;9.692;2023-11-21T00:20:44;10.10;89.90
13992;DHT22;7070;53.586;9.692;2023-11-21T00:23:12;10.10;89.90
13992;DHT22;7070;53.586;9.692;2023-11-21T00:25:38;10.00;89.90
13992;DHT22;7070;53.586;9.692;2023-11-21T00:28:05;10.00;89.80
13992;DHT22;7070;53.586;9.692;2023-11-21T00:30:32;10.00;89.90
13992;DHT22;7070;53.586;9.692;2023-11-21T00:32:59;9.90;90.30
13992;DHT22;7070;53.586;9.692;2023-11-21T00:35:28;10.00;89.80
13992;DHT22;7070;53.586;9.692;2023-11-21T00:37:54;10.00;89.70
13992;DHT22;7070;53.586;9.692;2023-11-21T00:40:21;9.90;90.30
13992;DHT22;7070;53.586;9.692;2023-11-21T00:42:48;9.90;90.30
13992;DHT22;7070;53.586;9.692;2023-11-21T00:45:15;9.90;90.30
13992;DHT22;7070;53.586;9.692;2023-11-21T00:47:42;9.90;90.30
13992;DHT22;7070;53.586;9.692;2023-11-21T00:50:10;9.90;90.30
13992;DHT22;7070;53.586;9.692;2023-11-21T00:52:38;9.80;90.20
13992;DHT22;7070;53.586;9.692;2023-11-21T00:55:06;9.80;90.20
13992;DHT22;7070;53.586;9.692;2023-11-21T00:57:33;9.80;90.20
13992;DHT22;7070;53.586;9.692;2023-11-21T01:00:00;9.80;90.30
13992;DHT22;7070;53.586;9.692;2023-11-21T01:02:27;10.10;89.80
13992;DHT22;7070;53.586;9.692;2023-11-21T01:04:54;9.70;90.10
13992;DHT22;7070;53.586;9.692;2023-11-21T01:07:21;9.70;90.20
13992;DHT22;7070;53.586;9.692;2023-11-21T01:09:49;9.70;90.20
13992;DHT22;7070;53.586;9.692;2023-11-21T01:12:16;9.70;90.20
13992;DHT22;7070;53.586;9.692;2023-11-21T01:14:44;9.70;90.20
13992;DHT22;7070;53.586;9.692;2023-11-21T01:17:12;9.70;90.20
13992;DHT22;7070;53.586;9.692;2023-11-21T01:19:38;9.60;90.10
13992;DHT22;7070;53.586;9.692;2023-11-21T01:22:05;9.70;90.10
13992;DHT22;7070;53.586;9.692;2023-11-21T01:24:32;9.60;90.10
13992;DHT22;7070;53.586;9.692;2023-11-21T01:27:00;9.50;90.00
13992;DHT22;7070;53.586;9.692;2023-11-21T01:29:27;9.60;90.00
13992;DHT22;7070;53.586;9.692;2023-11-21T01:31:54;9.50;90.00
13992;DHT22;7070;53.586;9.692;2023-11-21T01:34:22;9.50;90.00
13992;DHT22;7070;53.586;9.692;2023-11-21T01:36:50;9.50;90.00
13992;DHT22;7070;53.586;9.692;2023-11-21T01:39:16;9.40;90.00
13992;DHT22;7070;53.586;9.692;2023-11-21T01:41:49;9.40;90.00
13992;DHT22;7070;53.586;9.692;2023-11-21T01:44:17;9.40;90.00
13992;DHT22;7070;53.586;9.692;2023-11-21T01:46:45;9.40;90.00
13992;DHT22;7070;53.586;9.692;2023-11-21T01:49:12;9.30;89.90
13992;DHT22;7070;53.586;9.692;2023-11-21T01:51:41;9.30;89.90
13992;DHT22;7070;53.586;9.692;2023-11-21T01:54:09;9.30;89.80
13992;DHT22;7070;53.586;9.692;2023-11-21T01:56:37;9.30;89.90
13992;DHT22;7070;53.586;9.692;2023-11-21T01:59:04;9.40;90.00
13992;DHT22;7070;53.586;9.692;2023-11-21T02:01:34;9.30;89.90
13992;DHT22;7070;53.586;9.692;2023-11-21T02:04:01;9.20;89.80
13992;DHT22;7070;53.586;9.692;2023-11-21T02:06:28;9.20;89.80
13992;DHT22;7070;53.586;9.692;2023-11-21T02:08:56;9.20;89.80
13992;DHT22;7070;53.586;9.692;2023-11-21T02:11:25;9.20;89.80
13992;DHT22;7070;53.586;9.692;2023-11-21T02:13:52;9.20;89.80
13992;DHT22;7070;53.586;9.692;2023-11-21T02:16:20;9.30;89.90
13992;DHT22;7070;53.586;9.692;2023-11-21T02:18:49;9.10;89.70
13992;DHT22;7070;53.586;9.692;2023-11-21T02:21:16;9.20;89.80
13992;DHT22;7070;53.586;9.692;2023-11-21T02:23:45;9.20;89.80
13992;DHT22;7070;53.586;9.692;2023-11-21T02:26:12;9.10;89.70
13992;DHT22;7070;53.586;9.692;2023-11-21T02:28:39;9.20;90.20
13992;DHT22;7070;53.586;9.692;2023-11-21T02:31:06;9.10;89.70
13992;DHT22;7070;53.586;9.692;2023-11-21T02:33:33;9.20;89.60
13992;DHT22;7070;53.586;9.692;2023-11-21T02:36:00;9.20;89.60
13992;DHT22;7070;53.586;9.692;2023-11-21T02:38:27;9.10;89.50
13992;DHT22;7070;53.586;9.692;2023-11-21T02:40:57;9.10;89.40
13992;DHT22;7070;53.586;9.692;2023-11-21T02:43:24;9.10;89.20
13992;DHT22;7070;53.586;9.692;2023-11-21T02:45:51;9.10;89.20
13992;DHT22;7070;53.586;9.692;2023-11-21T02:48:18;9.10;89.20
13992;DHT22;7070;53.586;9.692;2023-11-21T02:50:45;9.00;89.00
13992;DHT22;7070;53.586;9.692;2023-11-21T02:53:12;9.00;89.00
13992;DHT22;7070;53.586;9.692;2023-11-21T02:55:39;9.00;88.90
13992;DHT22;7070;53.586;9.692;2023-11-21T02:58:07;9.00;88.90
13992;DHT22;7070;53.586;9.692;2023-11-21T03:00:34;8.90;88.80
13992;DHT22;7070;53.586;9.692;2023-11-21T03:03:01;8.90;88.70
13992;DHT22;7070;53.586;9.692;2023-11-21T03:05:27;8.90;88.60
13992;DHT22;7070;53.586;9.692;2023-11-21T03:07:55;8.90;88.50
13992;DHT22;7070;53.586;9.692;2023-11-21T03:10:22;8.80;88.50
13992;DHT22;7070;53.586;9.692;2023-11-21T03:12:49;8.80;88.40
13992;DHT22;7070;53.586;9.692;2023-11-21T03:15:17;8.80;88.20
13992;DHT22;7070;53.586;9.692;2023-11-21T03:17:44;8.80;88.20
13992;DHT22;7070;53.586;9.692;2023-11-21T03:20:11;8.80;88.90
13992;DHT22;7070;53.586;9.692;2023-11-21T03:22:39;8.90;88.20
13992;DHT22;7070;53.586;9.692;2023-11-21T03:25:07;8.60;87.90
13992;DHT22;7070;53.586;9.692;2023-11-21T03:27:36;8.60;87.80
13992;DHT22;7070;53.586;9.692;2023-11-21T03:30:05;8.60;87.80
13992;DHT22;7070;53.586;9.692;2023-11-21T03:32:34;8.50;87.80
13992;DHT22;7070;53.586;9.692;2023-11-21T03:35:01;8.50;87.80
13992;DHT22;7070;53.586;9.692;2023-11-21T03:37:29;8.40;87.80
13992;DHT22;7070;53.586;9.692;2023-11-21T03:39:56;8.40;87.80
13992;DHT22;7070;53.586;9.692;2023-11-21T03:42:23;8.40;88.00
13992;DHT22;7070;53.586;9.692;2023-11-21T03:44:51;8.40;88.00
13992;DHT22;7070;53.586;9.692;2023-11-21T03:47:18;8.50;88.10
13992;DHT22;7070;53.586;9.692;2023-11-21T03:49:47;8.40;88.10
13992;DHT22;7070;53.586;9.692;2023-11-21T03:52:14;8.40;88.10
13992;DHT22;7070;53.586;9.692;2023-11-21T03:54:40;8.40;87.90
13992;DHT22;7070;53.586;9.692;2023-11-21T03:57:08;8.40;88.00
13992;DHT22;7070;53.586;9.692;2023-11-21T03:59:36;8.30;88.00
13992;DHT22;7070;53.586;9.692;2023-11-21T04:02:03;8.30;88.00
13992;DHT22;7070;53.586;9.692;2023-11-21T04:04:30;8.30;88.10
13992;DHT22;7070;53.586;9.692;2023-11-21T04:06:58;8.40;88.20
13992;DHT22;7070;53.586;9.692;2023-11-21T04:09:25;8.40;88.00
13992;DHT22;7070;53.586;9.692;2023-11-21T04:11:52;8.30;88.00
13992;DHT22;7070;53.586;9.692;2023-11-21T04:14:19;8.20;88.60
13992;DHT22;7070;53.586;9.692;2023-11-21T04:16:46;8.30;88.00
13992;DHT22;7070;53.586;9.692;2023-11-21T04:19:14;8.30;88.00
13992;DHT22;7070;53.586;9.692;2023-11-21T04:21:41;8.30;88.00
13992;DHT22;7070;53.586;9.692;2023-11-21T04:24:09;8.30;88.10
13992;DHT22;7070;53.586;9.692;2023-11-21T04:26:36;8.30;88.00
13992;DHT22;7070;53.586;9.692;2023-11-21T04:29:03;8.30;88.20
13992;DHT22;7070;53.586;9.692;2023-11-21T04:31:31;8.30;88.00
13992;DHT22;7070;53.586;9.692;2023-11-21T04:33:58;8.30;88.00
13992;DHT22;7070;53.586;9.692;2023-11-21T04:36:25;8.40;88.00
13992;DHT22;7070;53.586;9.692;2023-11-21T04:38:52;8.30;87.80
13992;DHT22;7070;53.586;9.692;2023-11-21T04:41:20;8.30;87.90
13992;DHT22;7070;53.586;9.692;2023-11-21T04:43:48;8.30;87.90
13992;DHT22;7070;53.586;9.692;2023-11-21T04:46:15;8.30;87.80
13992;DHT22;7070;53.586;9.692;2023-11-21T04:48:41;8.20;87.70
13992;DHT22;7070;53.586;9.692;2023-11-21T04:51:09;8.30;88.60
13992;DHT22;7070;53.586;9.692;2023-11-21T04:53:37;8.30;87.80
13992;DHT22;7070;53.586;9.692;2023-11-21T04:56:05;8.20;87.70
13992;DHT22;7070;53.586;9.692;2023-11-21T04:58:34;8.20;87.60
13992;DHT22;7070;53.586;9.692;2023-11-21T05:01:01;8.30;87.80
13992;DHT22;7070;53.586;9.692;2023-11-21T05:03:28;8.30;87.70
13992;DHT22;7070;53.586;9.692;2023-11-21T05:05:55;8.30;87.80
13992;DHT22;7070;53.586;9.692;2023-11-21T05:08:22;8.30;87.80
13992;DHT22;7070;53.586;9.692;2023-11-21T05:10:49;8.40;87.80
13992;DHT22;7070;53.586;9.692;2023-11-21T05:13:17;8.30;87.70
13992;DHT22;7070;53.586;9.692;2023-11-21T05:15:45;8.30;87.70
13992;DHT22;7070;53.586;9.692;2023-11-21T05:18:12;8.20;87.60
13992;DHT22;7070;53.586;9.692;2023-11-21T05:20:39;8.30;87.70
13992;DHT22;7070;53.586;9.692;2023-11-21T05:23:08;8.20;87.60
13992;DHT22;7070;53.586;9.692;2023-11-21T05:25:34;8.30;87.70
13992;DHT22;7070;53.586;9.692;2023-11-21T05:28:01;8.30;87.50
13992;DHT22;7070;53.586;9.692;2023-11-21T05:30:29;8.30;87.50
13992;DHT22;7070;53.586;9.692;2023-11-21T05:32:57;8.30;87.50
13992;DHT22;7070;53.586;9.692;2023-11-21T05:35:24;8.30;87.40
13992;DHT22;7070;53.586;9.692;2023-11-21T05:37:52;8.20;87.30
13992;DHT22;7070;53.586;9.692;2023-11-21T05:40:19;8.20;87.30
13992;DHT22;7070;53.586;9.692;2023-11-21T05:42:47;8.20;87.40
13992;DHT22;7070;53.586;9.692;2023-11-21T05:45:14;8.20;87.30
13992;DHT22;7070;53.586;9.692;2023-11-21T05:47:43;8.10;87.30
13992;DHT22;7070;53.586;9.692;2023-11-21T05:50:14;8.20;87.40
13992;DHT22;7070;53.586;9.692;2023-11-21T05:52:41;8.10;87.30
13992;DHT22;7070;53.586;9.692;2023-11-21T05:55:09;8.10;87.30
13992;DHT22;7070;53.586;9.692;2023-11-21T05:57:37;8.10;87.40
13992;DHT22;7070;53.586;9.692;2023-11-21T06:00:05;8.10;87.30
13992;DHT22;7070;53.586;9.692;2023-11-21T06:02:37;8.00;87.20
13992;DHT22;7070;53.586;9.692;2023-11-21T06:05:06;8.10;87.40
13992;DHT22;7070;53.586;9.692;2023-11-21T06:07:34;8.10;87.40
13992;DHT22;7070;53.586;9.692;2023-11-21T06:10:02;8.10;86.80
13992;DHT22;7070;53.586;9.692;2023-11-21T06:12:32;8.10;87.30
13992;DHT22;7070;53.586;9.692;2023-11-21T06:15:01;8.10;87.40
13992;DHT22;7070;53.586;9.692;2023-11-21T06:17:29;8.10;87.40
13992;DHT22;7070;53.586;9.692;2023-11-21T06:19:56;8.00;87.20
13992;DHT22;7070;53.586;9.692;2023-11-21T06:22:23;8.00;87.30
13992;DHT22;7070;53.586;9.692;2023-11-21T06:24:51;8.00;87.30
13992;DHT22;7070;53.586;9.692;2023-11-21T06:27:18;8.10;87.30
13992;DHT22;7070;53.586;9.692;2023-11-21T06:29:45;8.10;87.30
13992;DHT22;7070;53.586;9.692;2023-11-21T06:32:13;8.10;87.30
13992;DHT22;7070;53.586;9.692;2023-11-21T06:34:41;8.10;87.30
13992;DHT22;7070;53.586;9.692;2023-11-21T06:37:08;8.00;87.30
13992;DHT22;7070;53.586;9.692;2023-11-21T06:39:36;8.10;87.20
13992;DHT22;7070;53.586;9.692;2023-11-21T06:42:05;6.40;85.70
13992;DHT22;7070;53.586;9.692;2023-11-21T06:44:32;8.00;87.20
13992;DHT22;7070;53.586;9.692;2023-11-21T06:47:01;8.00;87.10
13992;DHT22;7070;53.586;9.692;2023-11-21T06:49:28;8.00;87.00
13992;DHT22;7070;53.586;9.692;2023-11-21T06:51:55;8.00;87.00
13992;DHT22;7070;53.586;9.692;2023-11-21T06:54:22;8.00;86.90
13992;DHT22;7070;53.586;9.692;2023-11-21T06:56:49;8.00;86.90
13992;DHT22;7070;53.586;9.692;2023-11-21T06:59:17;7.90;86.80
13992;DHT22;7070;53.586;9.692;2023-11-21T07:01:44;7.90;86.90
13992;DHT22;7070;53.586;9.692;2023-11-21T07:04:10;7.90;86.90
13992;DHT22;7070;53.586;9.692;2023-11-21T07:06:37;7.90;86.90
13992;DHT22;7070;53.586;9.692;2023-11-21T07:09:04;7.90;87.00
13992;DHT22;7070;53.586;9.692;2023-11-21T07:11:31;7.90;87.10
13992;DHT22;7070;53.586;9.692;2023-11-21T07:13:58;7.90;87.20
13992;DHT22;7070;53.586;9.692;2023-11-21T07:16:29;7.90;87.10
13992;DHT22;7070;53.586;9.692;2023-11-21T07:18:56;8.00;87.30
13992;DHT22;7070;53.586;9.692;2023-11-21T07:21:23;8.00;87.30
13992;DHT22;7070;53.586;9.692;2023-11-21T07:23:50;8.00;87.30
13992;DHT22;7070;53.586;9.692;2023-11-21T07:26:17;8.00;87.30
13992;DHT22;7070;53.586;9.692;2023-11-21T07:28:47;8.00;87.30
13992;DHT22;7070;53.586;9.692;2023-11-21T07:31:14;8.10;87.20
13992;DHT22;7070;53.586;9.692;2023-11-21T07:33:42;8.10;87.30
13992;DHT22;7070;53.586;9.692;2023-11-21T07:36:09;8.10;87.30
13992;DHT22;7070;53.586;9.692;2023-11-21T07:38:37;8.10;87.20
13992;DHT22;7070;53.586;9.692;2023-11-21T07:41:05;8.10;87.20
13992;DHT22;7070;53.586;9.692;2023-11-21T07:43:33;8.10;87.20
13992;DHT22;7070;53.586;9.692;2023-11-21T07:46:00;8.20;87.20
13992;DHT22;7070;53.586;9.692;2023-11-21T07:48:28;8.10;88.00
13992;DHT22;7070;53.586;9.692;2023-11-21T07:50:56;8.20;87.20
13992;DHT22;7070;53.586;9.692;2023-11-21T07:53:23;8.20;87.10
13992;DHT22;7070;53.586;9.692;2023-11-21T07:55:50;8.20;87.10
13992;DHT22;7070;53.586;9.692;2023-11-21T07:58:17;8.20;87.10
13992;DHT22;7070;53.586;9.692;2023-11-21T08:00:44;8.20;87.00
13992;DHT22;7070;53.586;9.692;2023-11-21T08:03:12;8.90;87.70
13992;DHT22;7070;53.586;9.692;2023-11-21T08:05:39;8.30;87.10
13992;DHT22;7070;53.586;9.692;2023-11-21T08:08:08;8.30;87.20
13992;DHT22;7070;53.586;9.692;2023-11-21T08:10:35;8.40;87.30
13992;DHT22;7070;53.586;9.692;2023-11-21T08:13:02;8.40;87.20
13992;DHT22;7070;53.586;9.692;2023-11-21T08:15:29;8.40;87.20
13992;DHT22;7070;53.586;9.692;2023-11-21T08:17:57;8.40;87.20
13992;DHT22;7070;53.586;9.692;2023-11-21T08:20:26;8.40;87.20
13992;DHT22;7070;53.586;9.692;2023-11-21T08:22:53;8.50;87.20
13992;DHT22;7070;53.586;9.692;2023-11-21T08:25:23;8.40;87.00
13992;DHT22;7070;53.586;9.692;2023-11-21T08:27:51;8.50;87.10
13992;DHT22;7070;53.586;9.692;2023-11-21T08:30:18;8.40;87.00
13992;DHT22;7070;53.586;9.692;2023-11-21T08:32:52;8.50;87.10
13992;DHT22;7070;53.586;9.692;2023-11-21T08:35:19;8.50;87.10
13992;DHT22;7070;53.586;9.692;2023-11-21T08:37:46;8.60;87.20
13992;DHT22;7070;53.586;9.692;2023-11-21T08:40:13;8.60;87.20
13992;DHT22;7070;53.586;9.692;2023-11-21T08:42:43;8.60;87.20
13992;DHT22;7070;53.586;9.692;2023-11-21T08:45:11;8.70;87.30
13992;DHT22;7070;53.586;9.692;2023-11-21T08:47:38;8.60;87.10
13992;DHT22;7070;53.586;9.692;2023-11-21T08:50:06;8.60;87.10
13992;DHT22;7070;53.586;9.692;2023-11-21T08:52:33;8.60;86.90
13992;DHT22;7070;53.586;9.692;2023-11-21T08:55:00;8.70;87.00
13992;DHT22;7070;53.586;9.692;2023-11-21T08:57:33;8.80;87.90
13992;DHT22;7070;53.586;9.692;2023-11-21T09:00:02;8.60;86.90
13992;DHT22;7070;53.586;9.692;2023-11-21T09:02:33;8.60;86.90
13992;DHT22;7070;53.586;9.692;2023-11-21T09:05:00;8.70;86.90
13992;DHT22;7070;53.586;9.692;2023-11-21T09:07:28;8.70;87.00
13992;DHT22;7070;53.586;9.692;2023-11-21T09:09:55;8.60;86.80
13992;DHT22;7070;53.586;9.692;2023-11-21T09:12:22;8.60;86.80
13992;DHT22;7070;53.586;9.692;2023-11-21T09:14:50;8.70;87.00
13992;DHT22;7070;53.586;9.692;2023-11-21T09:17:18;8.70;86.70
13992;DHT22;7070;53.586;9.692;2023-11-21T09:19:45;8.70;86.80
13992;DHT22;7070;53.586;9.692;2023-11-21T09:22:15;8.60;86.70
13992;DHT22;7070;53.586;9.692;2023-11-21T09:24:42;8.70;86.70
13992;DHT22;7070;53.586;9.692;2023-11-21T09:27:09;8.70;86.70
13992;DHT22;7070;53.586;9.692;2023-11-21T09:29:36;8.70;86.70
13992;DHT22;7070;53.586;9.692;2023-11-21T09:32:04;8.70;86.70
13992;DHT22;7070;53.586;9.692;2023-11-21T09:34:33;8.70;86.60
13992;DHT22;7070;53.586;9.692;2023-11-21T09:37:01;8.70;86.80
13992;DHT22;7070;53.586;9.692;2023-11-21T09:39:31;8.80;86.70
13992;DHT22;7070;53.586;9.692;2023-11-21T09:42:04;8.80;87.50
13992;DHT22;7070;53.586;9.692;2023-11-21T09:44:36;8.90;86.90
13992;DHT22;7070;53.586;9.692;2023-11-21T09:47:07;9.00;86.90
13992;DHT22;7070;53.586;9.692;2023-11-21T09:49:38;8.90;86.70
13992;DHT22;7070;53.586;9.692;2023-11-21T09:52:09;9.00;87.50
13992;DHT22;7070;53.586;9.692;2023-11-21T09:54:38;8.90;86.50
13992;DHT22;7070;53.586;9.692;2023-11-21T09:57:06;9.00;86.50
13992;DHT22;7070;53.586;9.692;2023-11-21T09:59:35;9.00;86.40
13992;DHT22;7070;53.586;9.692;2023-11-21T10:02:04;9.00;86.40
13992;DHT22;7070;53.586;9.692;2023-11-21T10:04:31;8.90;86.30
13992;DHT22;7070;53.586;9.692;2023-11-21T10:07:00;9.00;87.20
13992;DHT22;7070;53.586;9.692;2023-11-21T10:09:29;8.90;86.40
13992;DHT22;7070;53.586;9.692;2023-11-21T10:11:58;9.00;86.50
13992;DHT22;7070;53.586;9.692;2023-11-21T10:14:26;8.90;86.40
13992;DHT22;7070;53.586;9.692;2023-11-21T10:16:55;9.00;86.60
13992;DHT22;7070;53.586;9.692;2023-11-21T10:19:24;8.90;86.40
13992;DHT22;7070;53.586;9.692;2023-11-21T10:21:53;8.90;86.30
13992;DHT22;7070;53.586;9.692;2023-11-21T10:24:21;8.90;86.20
13992;DHT22;7070;53.586;9.692;2023-11-21T10:26:48;8.90;86.00
13992;DHT22;7070;53.586;9.692;2023-11-21T10:29:16;8.90;86.00
13992;DHT22;7070;53.586;9.692;2023-11-21T10:31:44;8.90;85.90
13992;DHT22;7070;53.586;9.692;2023-11-21T10:34:15;8.80;85.70
13992;DHT22;7070;53.586;9.692;2023-11-21T10:36:42;8.90;85.70
13992;DHT22;7070;53.586;9.692;2023-11-21T10:39:09;8.80;85.60
13992;DHT22;7070;53.586;9.692;2023-11-21T10:41:44;8.70;85.50
13992;DHT22;7070;53.586;9.692;2023-11-21T10:44:14;8.70;85.50
13992;DHT22;7070;53.586;9.692;2023-11-21T10:46:45;8.60;85.40
13992;DHT22;7070;53.586;9.692;2023-11-21T10:49:16;8.60;85.60
13992;DHT22;7070;53.586;9.692;2023-11-21T10:51:43;8.60;85.70
13992;DHT22;7070;53.586;9.692;2023-11-21T10:54:10;8.50;85.60
13992;DHT22;7070;53.586;9.692;2023-11-21T10:56:39;8.40;85.60
13992;DHT22;7070;53.586;9.692;2023-11-21T10:59:10;8.70;86.70
13992;DHT22;7070;53.586;9.692;2023-11-21T11:01:41;8.50;85.80
13992;DHT22;7070;53.586;9.692;2023-11-21T11:04:09;8.50;86.00
13992;DHT22;7070;53.586;9.692;2023-11-21T11:06:41;8.40;85.90
13992;DHT22;7070;53.586;9.692;2023-11-21T11:09:08;8.50;86.10
13992;DHT22;7070;53.586;9.692;2023-11-21T11:11:38;8.50;86.00
13992;DHT22;7070;53.586;9.692;2023-11-21T11:14:07;8.60;86.00
13992;DHT22;7070;53.586;9.692;2023-11-21T11:16:37;8.60;86.00
13992;DHT22;7070;53.586;9.692;2023-11-21T11:19:05;8.70;86.00
13992;DHT22;7070;53.586;9.692;2023-11-21T11:21:39;8.70;86.00
13992;DHT22;7070;53.586;9.692;2023-11-21T11:24:32;8.70;85.80
13992;DHT22;7070;53.586;9.692;2023-11-21T11:27:06;8.70;85.70
13992;DHT22;7070;53.586;9.692;2023-11-21T11:29:48;8.80;85.90
13992;DHT22;7070;53.586;9.692;2023-11-21T11:32:24;8.80;85.80
13992;DHT22;7070;53.586;9.692;2023-11-21T11:34:59;9.50;86.30
13992;DHT22;7070;53.586;9.692;2023-11-21T11:37:28;8.80;85.60
13992;DHT22;7070;53.586;9.692;2023-11-21T11:39:55;8.80;85.40
13992;DHT22;7070;53.586;9.692;2023-11-21T11:42:23;8.90;85.40
13992;DHT22;7070;53.586;9.692;2023-11-21T11:44:51;8.80;85.30
13992;DHT22;7070;53.586;9.692;2023-11-21T11:47:23;8.80;85.10
13992;DHT22;7070;53.586;9.692;2023-11-21T11:50:05;9.00;85.40
13992;DHT22;7070;53.586;9.692;2023-11-21T11:52:35;8.80;85.20
13992;DHT22;7070;53.586;9.692;2023-11-21T11:55:03;8.90;85.40
13992;DHT22;7070;53.586;9.692;2023-11-21T11:57:30;8.90;85.50
13992;DHT22;7070;53.586;9.692;2023-11-21T12:00:10;8.90;85.50
13992;DHT22;7070;53.586;9.692;2023-11-21T12:02:45;8.90;85.30
13992;DHT22;7070;53.586;9.692;2023-11-21T12:05:13;8.90;85.90
13992;DHT22;7070;53.586;9.692;2023-11-21T12:07:51;9.00;85.10
13992;DHT22;7070;53.586;9.692;2023-11-21T12:10:20;8.90;84.80
13992;DHT22;7070;53.586;9.692;2023-11-21T12:12:49;8.90;84.70
13992;DHT22;7070;53.586;9.692;2023-11-21T12:15:18;8.90;84.60
13992;DHT22;7070;53.586;9.692;2023-11-21T12:17:47;8.90;84.40
13992;DHT22;7070;53.586;9.692;2023-11-21T12:20:19;8.90;84.40
13992;DHT22;7070;53.586;9.692;2023-11-21T12:22:47;8.80;84.40
13992;DHT22;7070;53.586;9.692;2023-11-21T12:25:15;8.80;84.40
13992;DHT22;7070;53.586;9.692;2023-11-21T12:27:46;8.80;84.50
13992;DHT22;7070;53.586;9.692;2023-11-21T12:30:15;8.80;84.40
13992;DHT22;7070;53.586;9.692;2023-11-21T12:32:44;8.80;84.20
13992;DHT22;7070;53.586;9.692;2023-11-21T12:35:13;8.80;84.10
13992;DHT22;7070;53.586;9.692;2023-11-21T12:37:40;8.70;83.90
13992;DHT22;7070;53.586;9.692;2023-11-21T12:40:10;8.70;83.90
13992;DHT22;7070;53.586;9.692;2023-11-21T12:42:39;8.60;83.60
13992;DHT22;7070;53.586;9.692;2023-11-21T12:45:18;8.60;83.70
13992;DHT22;7070;53.586;9.692;2023-11-21T12:47:47;8.60;84.10
13992;DHT22;7070;53.586;9.692;2023-11-21T12:50:15;8.50;83.70
13992;DHT22;7070;53.586;9.692;2023-11-21T12:52:47;8.40;83.60
13992;DHT22;7070;53.586;9.692;2023-11-21T12:55:16;8.20;83.50
13992;DHT22;7070;53.586;9.692;2023-11-21T12:57:44;6.10;81.80
13992;DHT22;7070;53.586;9.692;2023-11-21T13:00:12;8.10;83.80
13992;DHT22;7070;53.586;9.692;2023-11-21T13:02:53;8.10;84.00
13992;DHT22;7070;53.586;9.692;2023-11-21T13:05:32;8.10;84.40
13992;DHT22;7070;53.586;9.692;2023-11-21T13:08:01;8.00;84.60
13992;DHT22;7070;53.586;9.692;2023-11-21T13:10:30;7.90;84.60
13992;DHT22;7070;53.586;9.692;2023-11-21T13:12:58;7.90;84.70
13992;DHT22;7070;53.586;9.692;2023-11-21T13:15:26;7.90;85.50
13992;DHT22;7070;53.586;9.692;2023-11-21T13:17:53;8.00;85.10
13992;DHT22;7070;53.586;9.692;2023-11-21T13:20:21;7.80;84.90
13992;DHT22;7070;53.586;9.692;2023-11-21T13:22:52;7.80;85.10
13992;DHT22;7070;53.586;9.692;2023-11-21T13:25:20;7.70;85.00
13992;DHT22;7070;53.586;9.692;2023-11-21T13:27:47;7.70;85.10
13992;DHT22;7070;53.586;9.692;2023-11-21T13:30:15;7.60;85.10
13992;DHT22;7070;53.586;9.692;2023-11-21T13:32:43;7.60;85.20
13992;DHT22;7070;53.586;9.692;2023-11-21T13:35:11;7.60;85.30
13992;DHT22;7070;53.586;9.692;2023-11-21T13:37:48;7.50;85.40
13992;DHT22;7070;53.586;9.692;2023-11-21T13:40:20;7.60;85.60
13992;DHT22;7070;53.586;9.692;2023-11-21T13:42:49;7.60;85.70
13992;DHT22;7070;53.586;9.692;2023-11-21T13:45:19;7.40;85.50
13992;DHT22;7070;53.586;9.692;2023-11-21T13:47:47;7.40;85.70
13992;DHT22;7070;53.586;9.692;2023-11-21T13:50:16;7.30;85.70
13992;DHT22;7070;53.586;9.692;2023-11-21T13:52:48;7.30;85.80
13992;DHT22;7070;53.586;9.692;2023-11-21T13:55:15;7.30;85.90
13992;DHT22;7070;53.586;9.692;2023-11-21T13:57:43;7.20;85.80
13992;DHT22;7070;53.586;9.692;2023-11-21T14:00:15;7.30;86.00
13992;DHT22;7070;53.586;9.692;2023-11-21T14:03:06;7.20;86.00
13992;DHT22;7070;53.586;9.692;2023-11-21T14:05:41;7.20;86.10
13992;DHT22;7070;53.586;9.692;2023-11-21T14:08:09;7.20;86.10
13992;DHT22;7070;53.586;9.692;2023-11-21T14:10:38;7.10;86.10
13992;DHT22;7070;53.586;9.692;2023-11-21T14:13:10;8.10;87.10
13992;DHT22;7070;53.586;9.692;2023-11-21T14:15:39;7.10;86.20
13992;DHT22;7070;53.586;9.692;2023-11-21T14:18:11;7.10;86.30
13992;DHT22;7070;53.586;9.692;2023-11-21T14:20:40;7.10;86.40
13992;DHT22;7070;53.586;9.692;2023-11-21T14:23:07;7.10;86.60
13992;DHT22;7070;53.586;9.692;2023-11-21T14:25:35;7.10;86.50
13992;DHT22;7070;53.586;9.692;2023-11-21T14:28:03;7.10;86.60
13992;DHT22;7070;53.586;9.692;2023-11-21T14:30:33;7.10;86.50
13992;DHT22;7070;53.586;9.692;2023-11-21T14:33:01;7.10;86.50
13992;DHT22;7070;53.586;9.692;2023-11-21T14:35:28;7.10;86.60
13992;DHT22;7070;53.586;9.692;2023-11-21T14:37:58;8.30;87.60
13992;DHT22;7070;53.586;9.692;2023-11-21T14:40:26;7.10;86.50
13992;DHT22;7070;53.586;9.692;2023-11-21T14:42:58;7.40;87.60
13992;DHT22;7070;53.586;9.692;2023-11-21T14:45:25;7.10;86.60
13992;DHT22;7070;53.586;9.692;2023-11-21T14:47:55;7.10;86.60
13992;DHT22;7070;53.586;9.692;2023-11-21T14:50:32;7.10;86.60
13992;DHT22;7070;53.586;9.692;2023-11-21T14:53:15;7.70;87.30
13992;DHT22;7070;53.586;9.692;2023-11-21T14:55:42;7.00;86.60
13992;DHT22;7070;53.586;9.692;2023-11-21T14:58:23;7.00;86.70
13992;DHT22;7070;53.586;9.692;2023-11-21T15:00:55;7.00;86.60
13992;DHT22;7070;53.586;9.692;2023-11-21T15:03:28;7.00;86.70
13992;DHT22;7070;53.586;9.692;2023-11-21T15:06:09;7.00;86.80
13992;DHT22;7070;53.586;9.692;2023-11-21T15:08:52;7.00;86.70
13992;DHT22;7070;53.586;9.692;2023-11-21T15:11:24;6.90;86.60
13992;DHT22;7070;53.586;9.692;2023-11-21T15:13:56;6.90;86.50
13992;DHT22;7070;53.586;9.692;2023-11-21T15:16:23;6.90;86.60
13992;DHT22;7070;53.586;9.692;2023-11-21T15:18:52;6.90;86.60
13992;DHT22;7070;53.586;9.692;2023-11-21T15:21:20;6.90;86.70
13992;DHT22;7070;53.586;9.692;2023-11-21T15:23:49;6.90;86.50
13992;DHT22;7070;53.586;9.692;2023-11-21T15:26:17;6.90;86.50
13992;DHT22;7070;53.586;9.692;2023-11-21T15:28:43;6.90;86.70
13992;DHT22;7070;53.586;9.692;2023-11-21T15:31:10;6.80;86.60
13992;DHT22;7070;53.586;9.692;2023-11-21T15:33:37;6.80;86.50
13992;DHT22;7070;53.586;9.692;2023-11-21T15:36:06;6.80;86.70
13992;DHT22;7070;53.586;9.692;2023-11-21T15:38:35;6.80;86.70
13992;DHT22;7070;53.586;9.692;2023-11-21T15:41:02;6.80;86.60
13992;DHT22;7070;53.586;9.692;2023-11-21T15:43:30;6.70;86.60
13992;DHT22;7070;53.586;9.692;2023-11-21T15:45:57;6.80;86.60
13992;DHT22;7070;53.586;9.692;2023-11-21T15:48:27;7.40;87.40
13992;DHT22;7070;53.586;9.692;2023-11-21T15:50:56;6.80;86.60
13992;DHT22;7070;53.586;9.692;2023-11-21T15:53:24;6.80;86.60
13992;DHT22;7070;53.586;9.692;2023-11-21T15:55:51;6.80;86.60
13992;DHT22;7070;53.586;9.692;2023-11-21T15:58:19;6.70;86.60
13992;DHT22;7070;53.586;9.692;2023-11-21T16:00:45;6.80;86.50
13992;DHT22;7070;53.586;9.692;2023-11-21T16:03:12;6.80;86.60
13992;DHT22;7070;53.586;9.692;2023-11-21T16:05:40;6.80;86.60
13992;DHT22;7070;53.586;9.692;2023-11-21T16:08:07;6.80;86.60
13992;DHT22;7070;53.586;9.692;2023-11-21T16:10:35;6.70;86.60